createdAt,value
2018-05-27T00:00:46.657Z,22.68
2018-05-27T00:01:46.677Z,22.7
2018-05-27T00:02:46.609Z,22.67
2018-05-27T00:03:46.648Z,22.68
2018-05-27T00:04:46.620Z,22.7
2018-05-27T00:05:46.627Z,22.71
2018-05-27T00:06:46.653Z,22.7
2018-05-27T00:07:46.639Z,22.68
2018-05-27T00:08:46.636Z,22.68
2018-05-27T00:09:46.615Z,22.7
2018-05-27T00:10:46.674Z,22.7
2018-05-27T00:11:46.623Z,22.7
2018-05-27T00:12:46.732Z,22.68
2018-05-27T00:13:46.698Z,22.68
2018-05-27T00:14:46.828Z,22.66
2018-05-27T00:15:46.674Z,22.66
2018-05-27T00:16:46.698Z,22.66
2018-05-27T00:17:46.852Z,22.62
2018-05-27T00:18:46.661Z,22.64
2018-05-27T00:19:46.641Z,22.63
2018-05-27T00:20:46.640Z,22.61
2018-05-27T00:21:46.663Z,22.61
2018-05-27T00:22:46.667Z,22.61
2018-05-27T00:23:46.684Z,22.6
2018-05-27T00:24:46.654Z,22.6
2018-05-27T00:25:46.667Z,22.58
2018-05-27T00:26:46.661Z,22.58
2018-05-27T00:27:46.639Z,22.56
2018-05-27T00:28:46.672Z,22.55
2018-05-27T00:29:46.669Z,22.54
2018-05-27T00:30:46.693Z,22.54
2018-05-27T00:31:46.639Z,22.54
2018-05-27T00:32:46.660Z,22.52
2018-05-27T00:33:46.767Z,22.48
2018-05-27T00:34:46.702Z,22.48
2018-05-27T00:35:46.724Z,22.47
2018-05-27T00:36:46.653Z,22.45
2018-05-27T00:37:46.666Z,22.45
2018-05-27T00:38:46.650Z,22.45
2018-05-27T00:39:46.672Z,22.44
2018-05-27T00:40:46.680Z,22.45
2018-05-27T00:41:46.674Z,22.41
2018-05-27T00:42:46.714Z,22.41
2018-05-27T00:43:46.660Z,22.4
2018-05-27T00:44:46.651Z,22.39
2018-05-27T00:45:46.672Z,22.36
2018-05-27T00:46:46.637Z,22.36
2018-05-27T00:47:46.699Z,22.37
2018-05-27T00:48:46.660Z,22.38
2018-05-27T00:49:46.660Z,22.35
2018-05-27T00:50:46.639Z,22.34
2018-05-27T00:51:46.671Z,22.34
2018-05-27T00:52:46.669Z,22.3
2018-05-27T00:53:46.668Z,22.3
2018-05-27T00:54:46.650Z,22.29
2018-05-27T00:55:46.645Z,22.3
2018-05-27T00:56:46.712Z,22.29
2018-05-27T00:57:46.741Z,22.27
2018-05-27T00:58:46.746Z,22.26
2018-05-27T00:59:46.670Z,22.22
2018-05-27T01:00:46.682Z,22.2
2018-05-27T01:01:46.680Z,22.22
2018-05-27T01:02:46.637Z,22.22
2018-05-27T01:03:46.688Z,22.21
2018-05-27T01:04:46.662Z,22.2
2018-05-27T01:05:46.678Z,22.2
2018-05-27T01:06:46.666Z,22.18
2018-05-27T01:07:46.680Z,22.17
2018-05-27T01:08:46.671Z,22.2
2018-05-27T01:09:46.663Z,22.17
2018-05-27T01:10:46.710Z,22.17
2018-05-27T01:11:46.631Z,22.15
2018-05-27T01:12:46.648Z,22.13
2018-05-27T01:13:46.662Z,22.16
2018-05-27T01:14:46.664Z,22.14
2018-05-27T01:15:46.639Z,22.16
2018-05-27T01:16:46.639Z,22.16
2018-05-27T01:17:46.719Z,22.16
2018-05-27T01:18:46.654Z,22.15
2018-05-27T01:19:46.665Z,22.15
2018-05-27T01:20:46.643Z,22.16
2018-05-27T01:21:46.663Z,22.14
2018-05-27T01:22:46.679Z,22.15
2018-05-27T01:23:46.728Z,22.15
2018-05-27T01:24:46.650Z,22.14
2018-05-27T01:25:46.654Z,22.15
2018-05-27T01:26:46.820Z,22.12
2018-05-27T01:27:46.705Z,22.11
2018-05-27T01:28:46.689Z,22.09
2018-05-27T01:29:46.651Z,22.1
2018-05-27T01:30:46.693Z,22.09
2018-05-27T01:31:46.883Z,22.09
2018-05-27T01:32:46.676Z,22.08
2018-05-27T01:33:46.688Z,22.06
2018-05-27T01:34:46.660Z,22.07
2018-05-27T01:35:46.623Z,22.08
2018-05-27T01:36:46.717Z,22.06
2018-05-27T01:37:46.991Z,22.05
2018-05-27T01:38:46.628Z,22.03
2018-05-27T01:39:46.662Z,22
2018-05-27T01:40:46.632Z,22.02
2018-05-27T01:41:46.694Z,22.02
2018-05-27T01:42:46.693Z,21.99
2018-05-27T01:43:46.660Z,22.01
2018-05-27T01:44:46.628Z,21.98
2018-05-27T01:45:46.677Z,21.95
2018-05-27T01:46:46.637Z,21.96
2018-05-27T01:47:46.666Z,21.93
2018-05-27T01:48:46.826Z,21.91
2018-05-27T01:49:46.618Z,21.9
2018-05-27T01:50:46.670Z,21.9
2018-05-27T01:51:46.627Z,21.9
2018-05-27T01:52:46.630Z,21.89
2018-05-27T01:53:46.671Z,21.86
2018-05-27T01:54:46.804Z,21.88
2018-05-27T01:55:46.698Z,21.86
2018-05-27T01:56:46.709Z,21.83
2018-05-27T01:57:46.812Z,21.83
2018-05-27T01:58:46.680Z,21.82
2018-05-27T01:59:46.776Z,21.83
2018-05-27T02:00:46.656Z,21.84
2018-05-27T02:01:46.648Z,21.8
2018-05-27T02:02:46.686Z,21.79
2018-05-27T02:03:46.612Z,21.79
2018-05-27T02:04:46.641Z,21.79
2018-05-27T02:05:46.627Z,21.83
2018-05-27T02:06:46.912Z,21.8
2018-05-27T02:07:46.656Z,21.82
2018-05-27T02:08:46.662Z,21.8
2018-05-27T02:09:46.700Z,21.81
2018-05-27T02:10:46.645Z,21.82
2018-05-27T02:11:46.635Z,21.8
2018-05-27T02:12:46.680Z,21.8
2018-05-27T02:13:46.663Z,21.83
2018-05-27T02:14:46.629Z,21.8
2018-05-27T02:15:46.632Z,21.79
2018-05-27T02:16:46.637Z,21.79
2018-05-27T02:17:46.650Z,21.78
2018-05-27T02:18:46.640Z,21.78
2018-05-27T02:19:46.651Z,21.77
2018-05-27T02:20:46.627Z,21.75
2018-05-27T02:21:46.763Z,21.74
2018-05-27T02:22:46.607Z,21.74
2018-05-27T02:23:46.623Z,21.73
2018-05-27T02:24:46.615Z,21.73
2018-05-27T02:25:46.640Z,21.69
2018-05-27T02:26:46.683Z,21.69
2018-05-27T02:27:46.626Z,21.69
2018-05-27T02:28:46.629Z,21.68
2018-05-27T02:29:46.639Z,21.67
2018-05-27T02:30:46.680Z,21.64
2018-05-27T02:31:46.661Z,21.65
2018-05-27T02:32:46.677Z,21.63
2018-05-27T02:33:46.612Z,21.64
2018-05-27T02:34:46.649Z,21.63
2018-05-27T02:35:46.642Z,21.63
2018-05-27T02:36:46.828Z,21.62
2018-05-27T02:37:46.621Z,21.62
2018-05-27T02:38:46.727Z,21.61
2018-05-27T02:39:46.667Z,21.6
2018-05-27T02:40:46.880Z,21.61
2018-05-27T02:41:46.707Z,21.61
2018-05-27T02:42:46.902Z,21.56
2018-05-27T02:43:46.828Z,21.57
2018-05-27T02:44:46.633Z,21.56
2018-05-27T02:45:46.610Z,21.55
2018-05-27T02:46:46.634Z,21.55
2018-05-27T02:47:46.653Z,21.55
2018-05-27T02:48:46.645Z,21.53
2018-05-27T02:49:46.663Z,21.53
2018-05-27T02:50:46.632Z,21.54
2018-05-27T02:51:46.723Z,21.51
2018-05-27T02:52:46.667Z,21.49
2018-05-27T02:53:46.627Z,21.49
2018-05-27T02:54:46.674Z,21.5
2018-05-27T02:55:46.652Z,21.49
2018-05-27T02:56:46.699Z,21.5
2018-05-27T02:57:46.677Z,21.49
2018-05-27T02:58:46.910Z,21.49
2018-05-27T02:59:46.637Z,21.48
2018-05-27T03:00:46.637Z,21.47
2018-05-27T03:01:46.613Z,21.47
2018-05-27T03:02:46.655Z,21.45
2018-05-27T03:03:46.628Z,21.44
2018-05-27T03:04:46.609Z,21.44
2018-05-27T03:05:46.633Z,21.43
2018-05-27T03:06:46.696Z,21.42
2018-05-27T03:07:46.741Z,21.42
2018-05-27T03:08:46.648Z,21.4
2018-05-27T03:09:46.701Z,21.37
2018-05-27T03:10:46.695Z,21.36
2018-05-27T03:11:46.636Z,21.34
2018-05-27T03:12:46.759Z,21.33
2018-05-27T03:13:46.605Z,21.31
2018-05-27T03:14:46.655Z,21.31
2018-05-27T03:15:46.609Z,21.29
2018-05-27T03:16:46.616Z,21.29
2018-05-27T03:17:46.567Z,21.29
2018-05-27T03:18:46.712Z,21.25
2018-05-27T03:19:46.626Z,21.27
2018-05-27T03:20:46.604Z,21.23
2018-05-27T03:21:46.784Z,21.23
2018-05-27T03:22:47.053Z,21.21
2018-05-27T03:23:46.645Z,21.21
2018-05-27T03:24:46.651Z,21.2
2018-05-27T03:25:46.644Z,21.19
2018-05-27T03:26:46.646Z,21.18
2018-05-27T03:27:46.635Z,21.18
2018-05-27T03:28:46.599Z,21.15
2018-05-27T03:29:46.624Z,21.13
2018-05-27T03:30:46.650Z,21.04
2018-05-27T03:31:46.630Z,20.96
2018-05-27T03:32:46.640Z,20.85
2018-05-27T03:33:46.603Z,20.64
2018-05-27T03:34:46.591Z,20.52
2018-05-27T03:35:46.581Z,20.38
2018-05-27T03:36:46.641Z,20.31
2018-05-27T03:37:46.618Z,20.33
2018-05-27T03:38:46.619Z,20.35
2018-05-27T03:39:46.623Z,20.25
2018-05-27T03:40:46.623Z,20.22
2018-05-27T03:41:46.601Z,20.24
2018-05-27T03:42:46.584Z,20.21
2018-05-27T03:43:46.611Z,20.08
2018-05-27T03:44:46.661Z,20.01
2018-05-27T03:45:46.591Z,20.01
2018-05-27T03:46:46.626Z,19.97
2018-05-27T03:47:46.680Z,19.99
2018-05-27T03:48:46.646Z,19.95
2018-05-27T03:49:46.676Z,19.89
2018-05-27T03:50:46.616Z,19.91
2018-05-27T03:51:46.678Z,19.95
2018-05-27T03:52:46.621Z,19.95
2018-05-27T03:53:46.829Z,19.98
2018-05-27T03:54:46.611Z,19.96
2018-05-27T03:55:46.711Z,19.98
2018-05-27T03:56:46.800Z,20.02
2018-05-27T03:57:46.630Z,20.04
2018-05-27T03:58:46.603Z,20.03
2018-05-27T03:59:46.660Z,20.04
2018-05-27T04:00:46.575Z,20.02
2018-05-27T04:01:46.637Z,20.04
2018-05-27T04:02:46.801Z,20.04
2018-05-27T04:03:46.643Z,20.05
2018-05-27T04:04:46.732Z,20.05
2018-05-27T04:05:46.645Z,20.05
2018-05-27T04:06:46.696Z,20.04
2018-05-27T04:07:46.766Z,20.06
2018-05-27T04:08:46.722Z,20.04
2018-05-27T04:09:46.608Z,20.05
2018-05-27T04:10:46.723Z,20.05
2018-05-27T04:11:46.598Z,20.09
2018-05-27T04:12:46.627Z,20.1
2018-05-27T04:13:46.578Z,20.09
2018-05-27T04:14:46.577Z,20.09
2018-05-27T04:15:46.615Z,20.08
2018-05-27T04:16:46.655Z,20.09
2018-05-27T04:17:46.621Z,20.08
2018-05-27T04:18:46.673Z,20.02
2018-05-27T04:19:46.581Z,19.91
2018-05-27T04:20:46.762Z,19.86
2018-05-27T04:21:46.586Z,19.64
2018-05-27T04:22:46.629Z,19.67
2018-05-27T04:23:46.560Z,19.68
2018-05-27T04:24:46.556Z,19.66
2018-05-27T04:25:46.605Z,19.62
2018-05-27T04:26:46.584Z,19.63
2018-05-27T04:27:46.524Z,19.67
2018-05-27T04:28:46.689Z,19.69
2018-05-27T04:29:46.674Z,19.69
2018-05-27T04:30:46.567Z,19.71
2018-05-27T04:31:46.608Z,19.67
2018-05-27T04:32:46.606Z,19.66
2018-05-27T04:33:46.643Z,19.7
2018-05-27T04:34:46.569Z,19.71
2018-05-27T04:35:46.533Z,19.75
2018-05-27T04:36:46.606Z,19.74
2018-05-27T04:37:46.577Z,19.76
2018-05-27T04:38:46.553Z,19.79
2018-05-27T04:39:46.553Z,19.78
2018-05-27T04:40:46.578Z,19.8
2018-05-27T04:41:46.522Z,19.83
2018-05-27T04:42:46.553Z,19.83
2018-05-27T04:43:46.550Z,19.84
2018-05-27T04:44:46.894Z,19.87
2018-05-27T04:45:46.516Z,19.88
2018-05-27T04:46:46.569Z,19.91
2018-05-27T04:47:46.615Z,19.93
2018-05-27T04:48:46.538Z,19.93
2018-05-27T04:49:46.532Z,19.95
2018-05-27T04:50:46.552Z,19.95
2018-05-27T04:51:46.542Z,19.96
2018-05-27T04:52:46.554Z,20
2018-05-27T04:53:46.554Z,20
2018-05-27T04:54:46.523Z,20
2018-05-27T04:55:46.560Z,20.01
2018-05-27T04:56:46.536Z,20.02
2018-05-27T04:57:46.518Z,20.05
2018-05-27T04:58:46.536Z,20.05
2018-05-27T04:59:46.588Z,20.07
2018-05-27T05:00:46.519Z,20.08
2018-05-27T05:01:46.526Z,20.08
2018-05-27T05:02:46.594Z,20.1
2018-05-27T05:03:46.547Z,20.11
2018-05-27T05:04:46.563Z,20.13
2018-05-27T05:05:46.536Z,20.14
2018-05-27T05:06:46.576Z,20.14
2018-05-27T05:07:46.550Z,20.17
2018-05-27T05:08:46.582Z,20.18
2018-05-27T05:09:46.519Z,20.18
2018-05-27T05:10:46.620Z,20.2
2018-05-27T05:11:46.879Z,20.23
2018-05-27T05:12:46.677Z,20.24
2018-05-27T05:13:46.644Z,20.25
2018-05-27T05:14:46.530Z,20.27
2018-05-27T05:15:46.566Z,20.3
2018-05-27T05:16:46.555Z,20.32
2018-05-27T05:17:46.525Z,20.34
2018-05-27T05:18:46.598Z,20.36
2018-05-27T05:19:46.570Z,20.38
2018-05-27T05:20:46.598Z,20.39
2018-05-27T05:21:47.248Z,20.42
2018-05-27T05:22:46.538Z,20.43
2018-05-27T05:23:46.539Z,20.44
2018-05-27T05:24:46.544Z,20.45
2018-05-27T05:25:46.704Z,20.46
2018-05-27T05:26:46.540Z,20.48
2018-05-27T05:27:46.925Z,20.47
2018-05-27T05:28:46.516Z,20.49
2018-05-27T05:29:46.520Z,20.5
2018-05-27T05:30:46.548Z,20.5
2018-05-27T05:31:46.557Z,20.55
2018-05-27T05:32:46.610Z,20.5
2018-05-27T05:33:46.527Z,20.48
2018-05-27T05:34:46.571Z,20.53
2018-05-27T05:35:46.533Z,20.53
2018-05-27T05:36:46.559Z,20.56
2018-05-27T05:37:46.559Z,20.59
2018-05-27T05:38:46.552Z,20.61
2018-05-27T05:39:46.639Z,20.65
2018-05-27T05:40:46.531Z,20.66
2018-05-27T05:41:46.541Z,20.68
2018-05-27T05:42:46.602Z,20.72
2018-05-27T05:43:47.446Z,20.73
2018-05-27T05:44:46.526Z,20.77
2018-05-27T05:45:46.569Z,20.8
2018-05-27T05:46:46.519Z,20.81
2018-05-27T05:47:46.601Z,20.84
2018-05-27T05:48:46.587Z,20.85
2018-05-27T05:49:46.549Z,20.9
2018-05-27T05:50:46.601Z,20.92
2018-05-27T05:51:46.563Z,20.93
2018-05-27T05:52:46.551Z,20.97
2018-05-27T05:53:46.536Z,20.97
2018-05-27T05:54:46.492Z,21.02
2018-05-27T05:55:46.605Z,21.02
2018-05-27T05:56:46.528Z,21.05
2018-05-27T05:57:46.502Z,21.08
2018-05-27T05:58:46.488Z,21.1
2018-05-27T05:59:46.536Z,21.12
2018-05-27T06:00:46.534Z,21.16
2018-05-27T06:01:46.782Z,21.17
2018-05-27T06:02:46.530Z,21.21
2018-05-27T06:03:46.559Z,21.24
2018-05-27T06:04:46.548Z,21.27
2018-05-27T06:05:46.510Z,21.28
2018-05-27T06:06:46.566Z,21.29
2018-05-27T06:07:46.541Z,21.33
2018-05-27T06:08:46.598Z,21.36
2018-05-27T06:09:46.518Z,21.39
2018-05-27T06:10:46.507Z,21.4
2018-05-27T06:11:46.583Z,21.45
2018-05-27T06:12:46.707Z,21.47
2018-05-27T06:13:46.530Z,21.51
2018-05-27T06:14:46.699Z,21.54
2018-05-27T06:15:46.554Z,21.57
2018-05-27T06:16:46.518Z,21.59
2018-05-27T06:17:46.597Z,21.6
2018-05-27T06:18:46.578Z,21.63
2018-05-27T06:19:46.529Z,21.64
2018-05-27T06:20:46.782Z,21.66
2018-05-27T06:21:46.619Z,21.67
2018-05-27T06:22:46.552Z,21.71
2018-05-27T06:23:46.528Z,21.72
2018-05-27T06:24:46.524Z,21.74
2018-05-27T06:25:47.119Z,21.78
2018-05-27T06:26:46.667Z,21.79
2018-05-27T06:27:46.562Z,21.82
2018-05-27T06:28:46.604Z,21.84
2018-05-27T06:29:46.526Z,21.85
2018-05-27T06:30:46.520Z,21.87
2018-05-27T06:31:46.599Z,21.9
2018-05-27T06:32:46.533Z,21.91
2018-05-27T06:33:46.711Z,21.96
2018-05-27T06:34:46.717Z,21.96
2018-05-27T06:35:46.537Z,21.98
2018-05-27T06:36:46.500Z,22.02
2018-05-27T06:37:46.570Z,22.03
2018-05-27T06:38:47.978Z,22.05
2018-05-27T06:39:46.512Z,22.09
2018-05-27T06:40:46.545Z,22.11
2018-05-27T06:41:46.528Z,22.12
2018-05-27T06:42:46.990Z,22.16
2018-05-27T06:43:46.504Z,22.17
2018-05-27T06:44:46.569Z,22.2
2018-05-27T06:45:46.577Z,22.22
2018-05-27T06:46:46.598Z,22.24
2018-05-27T06:47:46.654Z,22.27
2018-05-27T06:48:46.543Z,22.28
2018-05-27T06:49:46.522Z,22.29
2018-05-27T06:50:46.548Z,22.34
2018-05-27T06:51:46.581Z,22.35
2018-05-27T06:52:46.539Z,22.37
2018-05-27T06:53:46.485Z,22.39
2018-05-27T06:54:46.553Z,22.41
2018-05-27T06:55:46.591Z,22.4
2018-05-27T06:56:46.495Z,22.42
2018-05-27T06:57:46.512Z,22.45
2018-05-27T06:58:46.496Z,22.47
2018-05-27T06:59:46.707Z,22.49
2018-05-27T07:00:46.715Z,22.52
2018-05-27T07:01:46.523Z,22.55
2018-05-27T07:02:46.481Z,22.55
2018-05-27T07:03:46.537Z,22.57
2018-05-27T07:04:47.788Z,22.58
2018-05-27T07:05:46.533Z,22.6
2018-05-27T07:06:46.553Z,22.62
2018-05-27T07:07:46.504Z,22.63
2018-05-27T07:08:46.494Z,22.64
2018-05-27T07:09:46.506Z,22.66
2018-05-27T07:10:46.487Z,22.67
2018-05-27T07:11:46.529Z,22.68
2018-05-27T07:12:46.481Z,22.71
2018-05-27T07:13:46.503Z,22.73
2018-05-27T07:14:46.509Z,22.75
2018-05-27T07:15:46.524Z,22.78
2018-05-27T07:16:46.530Z,22.78
2018-05-27T07:17:46.562Z,22.77
2018-05-27T07:18:46.549Z,22.79
2018-05-27T07:19:46.498Z,22.8
2018-05-27T07:20:46.522Z,22.84
2018-05-27T07:21:47.201Z,22.83
2018-05-27T07:22:46.535Z,22.85
2018-05-27T07:23:46.494Z,22.89
2018-05-27T07:24:46.552Z,22.94
2018-05-27T07:25:46.639Z,22.94
2018-05-27T07:26:46.477Z,22.96
2018-05-27T07:27:46.528Z,22.97
2018-05-27T07:28:46.495Z,23.03
2018-05-27T07:29:46.604Z,23.04
2018-05-27T07:30:46.637Z,23.07
2018-05-27T07:31:46.528Z,23.1
2018-05-27T07:32:46.471Z,23.12
2018-05-27T07:33:46.612Z,23.16
2018-05-27T07:34:46.540Z,23.2
2018-05-27T07:35:46.582Z,23.22
2018-05-27T07:36:46.613Z,23.25
2018-05-27T07:37:46.582Z,23.28
2018-05-27T07:38:46.469Z,23.31
2018-05-27T07:39:46.622Z,23.35
2018-05-27T07:40:47.517Z,23.39
2018-05-27T07:41:46.523Z,23.42
2018-05-27T07:42:46.521Z,23.46
2018-05-27T07:43:46.543Z,23.5
2018-05-27T07:44:46.542Z,23.53
2018-05-27T07:45:46.515Z,23.53
2018-05-27T07:46:46.529Z,23.59
2018-05-27T07:47:46.612Z,23.63
2018-05-27T07:48:46.538Z,23.65
2018-05-27T07:49:46.471Z,23.66
2018-05-27T07:50:46.578Z,23.69
2018-05-27T07:51:46.663Z,23.72
2018-05-27T07:52:46.477Z,23.78
2018-05-27T07:53:46.491Z,23.79
2018-05-27T07:54:46.546Z,23.79
2018-05-27T07:55:46.652Z,23.84
2018-05-27T07:56:46.488Z,23.92
2018-05-27T07:57:46.654Z,23.95
2018-05-27T07:58:46.558Z,23.97
2018-05-27T07:59:46.452Z,24.01
2018-05-27T08:00:46.565Z,24.03
2018-05-27T08:01:46.554Z,24.04
2018-05-27T08:02:46.521Z,24.12
2018-05-27T08:03:46.519Z,24.12
2018-05-27T08:04:46.564Z,24.12
2018-05-27T08:05:46.534Z,24.13
2018-05-27T08:06:46.480Z,24.15
2018-05-27T08:07:46.494Z,24.15
2018-05-27T08:08:46.491Z,24.17
2018-05-27T08:09:46.471Z,24.16
2018-05-27T08:10:46.491Z,24.15
2018-05-27T08:11:46.498Z,24.15
2018-05-27T08:12:46.565Z,24.14
2018-05-27T08:13:46.558Z,24.15
2018-05-27T08:14:46.596Z,24.17
2018-05-27T08:15:46.485Z,24.19
2018-05-27T08:16:46.459Z,24.21
2018-05-27T08:17:46.513Z,24.21
2018-05-27T08:18:46.639Z,24.24
2018-05-27T08:19:47.035Z,24.25
2018-05-27T08:20:46.517Z,24.27
2018-05-27T08:21:46.492Z,24.28
2018-05-27T08:22:46.583Z,24.34
2018-05-27T08:23:46.474Z,24.35
2018-05-27T08:24:46.473Z,24.36
2018-05-27T08:25:46.503Z,24.42
2018-05-27T08:26:46.696Z,24.47
2018-05-27T08:27:46.481Z,24.49
2018-05-27T08:28:46.504Z,24.53
2018-05-27T08:29:46.687Z,24.59
2018-05-27T08:30:46.473Z,24.62
2018-05-27T08:31:46.542Z,24.59
2018-05-27T08:32:46.518Z,24.59
2018-05-27T08:33:46.564Z,24.63
2018-05-27T08:34:46.489Z,24.64
2018-05-27T08:35:47.193Z,24.65
2018-05-27T08:36:46.484Z,24.71
2018-05-27T08:37:46.508Z,24.74
2018-05-27T08:38:46.483Z,24.79
2018-05-27T08:39:46.533Z,24.83
2018-05-27T08:40:46.470Z,24.85
2018-05-27T08:41:46.446Z,24.85
2018-05-27T08:42:46.503Z,24.88
2018-05-27T08:43:46.467Z,24.84
2018-05-27T08:44:46.493Z,24.85
2018-05-27T08:45:46.491Z,24.83
2018-05-27T08:46:46.499Z,24.82
2018-05-27T08:47:46.511Z,24.79
2018-05-27T08:48:46.441Z,24.79
2018-05-27T08:49:46.458Z,24.79
2018-05-27T08:50:46.475Z,24.81
2018-05-27T08:51:46.502Z,24.82
2018-05-27T08:52:46.532Z,24.8
2018-05-27T08:53:46.475Z,24.83
2018-05-27T08:54:46.463Z,24.84
2018-05-27T08:55:46.510Z,24.85
2018-05-27T08:56:46.474Z,24.89
2018-05-27T08:57:46.475Z,24.91
2018-05-27T08:58:46.479Z,24.95
2018-05-27T08:59:46.508Z,24.96
2018-05-27T09:00:46.473Z,24.98
2018-05-27T09:01:46.442Z,25.01
2018-05-27T09:02:46.431Z,25.08
2018-05-27T09:03:47.043Z,25.12
2018-05-27T09:04:46.512Z,25.17
2018-05-27T09:05:46.473Z,25.22
2018-05-27T09:06:46.492Z,25.28
2018-05-27T09:07:46.519Z,25.29
2018-05-27T09:08:46.500Z,25.34
2018-05-27T09:09:46.544Z,25.41
2018-05-27T09:10:46.496Z,25.44
2018-05-27T09:11:46.438Z,25.5
2018-05-27T09:12:46.484Z,25.55
2018-05-27T09:13:46.473Z,25.62
2018-05-27T09:14:46.497Z,25.64
2018-05-27T09:15:46.460Z,25.66
2018-05-27T09:16:46.482Z,25.68
2018-05-27T09:17:46.602Z,25.72
2018-05-27T09:18:46.564Z,25.72
2018-05-27T09:19:46.468Z,25.71
2018-05-27T09:20:46.451Z,25.73
2018-05-27T09:21:46.473Z,25.75
2018-05-27T09:22:46.580Z,25.79
2018-05-27T09:23:46.477Z,25.86
2018-05-27T09:24:46.879Z,25.88
2018-05-27T09:25:46.435Z,25.94
2018-05-27T09:26:46.489Z,25.98
2018-05-27T09:27:46.569Z,26.04
2018-05-27T09:28:46.611Z,26.04
2018-05-27T09:29:46.469Z,26.04
2018-05-27T09:30:46.866Z,26.06
2018-05-27T09:31:46.472Z,26.08
2018-05-27T09:32:47.274Z,26.11
2018-05-27T09:33:47.449Z,26.12
2018-05-27T09:34:46.645Z,26.1
2018-05-27T09:35:46.575Z,26.12
2018-05-27T09:36:46.453Z,26.12
2018-05-27T09:37:46.532Z,26.16
2018-05-27T09:38:46.499Z,26.16
2018-05-27T09:39:54.573Z,26.18
2018-05-27T09:40:47.688Z,26.21
2018-05-27T09:41:46.497Z,26.21
2018-05-27T09:42:46.485Z,26.23
2018-05-27T09:43:48.159Z,26.27
2018-05-27T09:44:46.451Z,26.29
2018-05-27T09:45:46.459Z,26.3
2018-05-27T09:46:47.389Z,26.33
2018-05-27T09:47:46.624Z,26.32
2018-05-27T09:48:46.466Z,26.31
2018-05-27T09:49:46.566Z,26.34
2018-05-27T09:50:46.466Z,26.35
2018-05-27T09:51:46.489Z,26.4
2018-05-27T09:52:46.590Z,26.46
2018-05-27T09:53:46.404Z,26.49
2018-05-27T09:54:46.560Z,26.49
2018-05-27T09:55:46.525Z,26.56
2018-05-27T09:56:46.424Z,26.61
2018-05-27T09:57:46.666Z,26.63
2018-05-27T09:58:46.480Z,26.64
2018-05-27T09:59:46.400Z,26.65
2018-05-27T10:00:46.459Z,26.65
2018-05-27T10:01:46.386Z,26.7
2018-05-27T10:02:46.462Z,26.66
2018-05-27T10:03:46.419Z,26.67
2018-05-27T10:04:46.396Z,26.66
2018-05-27T10:05:46.490Z,26.64
2018-05-27T10:06:46.482Z,26.64
2018-05-27T10:07:46.391Z,26.68
2018-05-27T10:08:46.398Z,26.67
2018-05-27T10:09:46.483Z,26.71
2018-05-27T10:10:46.393Z,26.69
2018-05-27T10:11:47.741Z,26.68
2018-05-27T10:12:46.866Z,26.71
2018-05-27T10:13:46.553Z,26.67
2018-05-27T10:14:46.449Z,26.71
2018-05-27T10:15:46.418Z,26.72
2018-05-27T10:16:46.445Z,26.75
2018-05-27T10:17:46.393Z,26.76
2018-05-27T10:18:46.548Z,26.79
2018-05-27T10:19:46.502Z,26.82
2018-05-27T10:20:46.426Z,26.83
2018-05-27T10:21:46.397Z,26.86
2018-05-27T10:22:46.399Z,26.87
2018-05-27T10:23:46.780Z,26.92
2018-05-27T10:24:46.894Z,26.98
2018-05-27T10:25:46.658Z,27.01
2018-05-27T10:26:46.420Z,27.08
2018-05-27T10:27:46.503Z,27.15
2018-05-27T10:28:46.397Z,27.14
2018-05-27T10:29:46.456Z,27.18
2018-05-27T10:30:46.429Z,27.19
2018-05-27T10:32:01.888Z,27.21
2018-05-27T10:32:47.494Z,27.26
2018-05-27T10:35:03.670Z,27.32
2018-05-27T10:35:04.847Z,27.36
2018-05-27T10:36:05.045Z,27.42
2018-05-27T10:37:05.234Z,27.44
2018-05-27T10:38:04.940Z,27.46
2018-05-27T10:39:05.213Z,27.46
2018-05-27T10:40:04.969Z,27.47
2018-05-27T10:41:04.961Z,27.48
2018-05-27T10:42:05.058Z,27.49
2018-05-27T10:43:05.005Z,27.46
2018-05-27T10:44:04.920Z,27.47
2018-05-27T10:45:07.476Z,27.48
2018-05-27T10:46:04.947Z,27.52
2018-05-27T10:47:04.975Z,27.54
2018-05-27T10:48:04.941Z,27.56
2018-05-27T10:49:04.965Z,27.6
2018-05-27T10:50:05.019Z,27.66
2018-05-27T10:51:05.004Z,27.71
2018-05-27T10:52:05.414Z,27.75
2018-05-27T10:53:06.614Z,27.72
2018-05-27T10:54:05.000Z,27.77
2018-05-27T10:55:04.988Z,27.81
2018-05-27T10:56:04.962Z,27.87
2018-05-27T10:57:05.037Z,27.86
2018-05-27T10:58:04.943Z,27.9
2018-05-27T10:59:04.912Z,27.91
2018-05-27T11:00:04.958Z,27.92
2018-05-27T11:01:04.957Z,27.97
2018-05-27T11:02:05.476Z,27.99
2018-05-27T11:03:05.102Z,28.02
2018-05-27T11:04:05.014Z,28.05
2018-05-27T11:05:05.164Z,28.06
2018-05-27T11:06:04.964Z,28.11
2018-05-27T11:07:04.958Z,28.17
2018-05-27T11:08:05.002Z,28.17
2018-05-27T11:09:04.935Z,28.19
2018-05-27T11:10:04.993Z,28.21
2018-05-27T11:11:04.927Z,28.25
2018-05-27T11:12:04.935Z,28.29
2018-05-27T11:13:05.038Z,28.34
2018-05-27T11:14:04.953Z,28.37
2018-05-27T11:15:04.923Z,28.4
2018-05-27T11:16:04.902Z,28.42
2018-05-27T11:17:05.096Z,28.43
2018-05-27T11:18:04.963Z,28.46
2018-05-27T11:19:05.084Z,28.45
2018-05-27T11:20:04.958Z,28.44
2018-05-27T11:21:04.935Z,28.43
2018-05-27T11:22:04.982Z,28.47
2018-05-27T11:23:04.942Z,28.47
2018-05-27T11:24:05.005Z,28.49
2018-05-27T11:25:04.921Z,28.54
2018-05-27T11:26:04.913Z,28.57
2018-05-27T11:27:05.111Z,28.59
2018-05-27T11:28:04.909Z,28.57
2018-05-27T11:29:04.945Z,28.62
2018-05-27T11:30:05.191Z,28.64
2018-05-27T11:31:04.953Z,28.67
2018-05-27T11:32:04.947Z,28.63
2018-05-27T11:33:05.073Z,28.65
2018-05-27T11:34:05.007Z,28.67
2018-05-27T11:35:04.929Z,28.62
2018-05-27T11:36:04.942Z,28.65
2018-05-27T11:37:05.070Z,28.69
2018-05-27T11:38:04.931Z,28.73
2018-05-27T11:39:04.913Z,28.78
2018-05-27T11:40:04.926Z,28.83
2018-05-27T11:41:05.027Z,28.84
2018-05-27T11:42:04.913Z,28.89
2018-05-27T11:43:05.050Z,28.9
2018-05-27T11:44:04.952Z,28.92
2018-05-27T11:45:04.975Z,28.9
2018-05-27T11:46:04.924Z,28.92
2018-05-27T11:47:04.997Z,28.9
2018-05-27T11:48:04.939Z,28.91
2018-05-27T11:49:04.949Z,28.92
2018-05-27T11:50:05.017Z,28.94
2018-05-27T11:51:04.954Z,28.97
2018-05-27T11:52:04.987Z,29.03
2018-05-27T11:53:04.978Z,29.05
2018-05-27T11:54:05.246Z,29.06
2018-05-27T11:55:04.992Z,29.09
2018-05-27T11:56:04.970Z,29.13
2018-05-27T11:57:04.970Z,29.12
2018-05-27T11:58:05.075Z,29.02
2018-05-27T11:59:04.919Z,29
2018-05-27T12:00:05.066Z,29.08
2018-05-27T12:01:05.157Z,29.13
2018-05-27T12:02:05.519Z,29.15
2018-05-27T12:03:05.180Z,29.19
2018-05-27T12:04:04.983Z,29.25
2018-05-27T12:05:05.093Z,29.31
2018-05-27T12:06:05.152Z,29.36
2018-05-27T12:07:04.987Z,29.4
2018-05-27T12:08:04.940Z,29.45
2018-05-27T12:09:07.363Z,29.46
2018-05-27T12:10:05.035Z,29.46
2018-05-27T12:11:05.027Z,29.51
2018-05-27T12:12:05.046Z,29.52
2018-05-27T12:13:05.057Z,29.56
2018-05-27T12:14:05.260Z,29.57
2018-05-27T12:15:05.949Z,29.52
2018-05-27T12:16:05.384Z,29.57
2018-05-27T12:17:05.497Z,29.58
2018-05-27T12:18:04.980Z,29.55
2018-05-27T12:19:04.986Z,29.52
2018-05-27T12:20:05.091Z,29.5
2018-05-27T12:21:05.130Z,29.45
2018-05-27T12:22:05.300Z,29.4
2018-05-27T12:23:04.994Z,29.38
2018-05-27T12:24:05.377Z,29.3
2018-05-27T12:25:05.013Z,29.28
2018-05-27T12:26:04.872Z,29.24
2018-05-27T12:27:05.016Z,29.24
2018-05-27T12:28:05.044Z,29.26
2018-05-27T12:29:04.907Z,29.28
2018-05-27T12:30:04.925Z,29.26
2018-05-27T12:31:04.978Z,29.23
2018-05-27T12:32:04.887Z,29.11
2018-05-27T12:33:05.104Z,29.14
2018-05-27T12:34:04.932Z,29.24
2018-05-27T12:35:04.895Z,29.27
2018-05-27T12:36:05.105Z,29.33
2018-05-27T12:37:05.011Z,29.38
2018-05-27T12:38:05.041Z,29.42
2018-05-27T12:39:04.897Z,29.52
2018-05-27T12:40:05.038Z,29.56
2018-05-27T12:41:04.997Z,29.63
2018-05-27T12:42:04.901Z,29.67
2018-05-27T12:43:05.004Z,29.71
2018-05-27T12:44:04.966Z,29.78
2018-05-27T12:45:05.095Z,29.85
2018-05-27T12:46:05.283Z,29.92
2018-05-27T12:47:04.918Z,29.99
2018-05-27T12:48:04.910Z,30
2018-05-27T12:49:04.981Z,29.91
2018-05-27T12:50:04.981Z,29.99
2018-05-27T12:51:05.728Z,30.09
2018-05-27T12:52:05.114Z,30.13
2018-05-27T12:53:04.916Z,30.2
2018-05-27T12:54:05.116Z,30.24
2018-05-27T12:55:05.040Z,30.29
2018-05-27T12:56:05.183Z,30.34